Time,TemperatureF,DewpointF,PressureIn,WindDirection,WindDirectionDegrees,WindSpeedMPH,WindSpeedGustMPH,Humidity,HourlyPrecipIn,Conditions,Clouds,dailyrainin,SoftwareType,DateUTC
2013-02-09 00:00:00,32.6,27.0,30.36,North,355,0.0,2.0,79,0.00,,,0.00,weatherlink.com 1.10,2013-02-09 05:00:00,
2013-02-09 00:16:00,32.4,27.0,30.36,North,355,0.0,3.0,80,0.00,,,0.00,weatherlink.com 1.10,2013-02-09 05:16:00,
2013-02-09 00:31:00,32.3,26.0,30.36,North,355,1.0,3.0,79,0.00,,,0.00,weatherlink.com 1.10,2013-02-09 05:31:00,
2013-02-09 00:46:00,32.3,27.0,30.36,North,355,0.0,3.0,80,0.00,,,0.00,weatherlink.com 1.10,2013-02-09 05:46:00,
2013-02-09 01:01:00,32.0,27.0,30.36,North,355,0.0,0.0,83,0.00,,,0.00,weatherlink.com 1.10,2013-02-09 06:01:00,
2013-02-09 01:16:00,31.7,27.0,30.36,North,355,0.0,1.0,84,0.00,,,0.00,weatherlink.com 1.10,2013-02-09 06:16:00,
2013-02-09 01:31:00,31.2,27.0,30.36,North,355,0.0,2.0,84,0.00,,,0.00,weatherlink.com 1.10,2013-02-09 06:31:00,
2013-02-09 01:46:00,30.8,26.0,30.37,North,355,1.0,3.0,83,0.00,,,0.00,weatherlink.com 1.10,2013-02-09 06:46:00,
2013-02-09 02:01:00,31.0,26.0,30.37,North,355,0.0,2.0,83,0.00,,,0.00,weatherlink.com 1.10,2013-02-09 07:01:00,
2013-02-09 02:16:00,31.0,26.0,30.36,North,11,4.0,4.0,83,0.00,,,0.00,weatherlink.com 1.10,2013-02-09 07:16:00,
2013-02-09 02:31:00,31.4,26.0,30.37,NNE,19,1.0,6.0,80,0.00,,,0.00,weatherlink.com 1.10,2013-02-09 07:31:00,
2013-02-09 02:46:00,31.7,26.0,30.38,NNE,17,4.0,4.0,80,0.00,,,0.00,weatherlink.com 1.10,2013-02-09 07:46:00,
2013-02-09 03:01:00,31.8,26.0,30.38,NNE,13,3.0,9.0,80,0.00,,,0.00,weatherlink.com 1.10,2013-02-09 08:01:00,
2013-02-09 03:16:00,31.7,26.0,30.38,North,5,0.0,7.0,78,0.00,,,0.00,weatherlink.com 1.10,2013-02-09 08:16:00,
2013-02-09 03:31:00,31.5,25.0,30.37,NNE,20,3.0,7.0,78,0.00,,,0.00,weatherlink.com 1.10,2013-02-09 08:31:00,
2013-02-09 03:46:00,30.9,25.0,30.37,NNE,22,3.0,9.0,78,0.00,,,0.00,weatherlink.com 1.10,2013-02-09 08:46:00,
2013-02-09 04:01:00,30.1,24.0,30.37,NNE,16,2.0,7.0,79,0.00,,,0.00,weatherlink.com 1.10,2013-02-09 09:01:00,
2013-02-09 04:16:00,29.4,24.0,30.37,NNE,21,0.0,4.0,81,0.00,,,0.00,weatherlink.com 1.10,2013-02-09 09:16:00,
2013-02-09 04:31:00,28.8,24.0,30.38,NNE,21,0.0,1.0,81,0.00,,,0.00,weatherlink.com 1.10,2013-02-09 09:31:00,
2013-02-09 04:46:00,28.0,24.0,30.38,NNE,21,0.0,2.0,84,0.00,,,0.00,weatherlink.com 1.10,2013-02-09 09:46:00,
2013-02-09 05:01:00,27.1,24.0,30.37,NNE,21,0.0,2.0,86,0.00,,,0.00,weatherlink.com 1.10,2013-02-09 10:01:00,
2013-02-09 05:16:00,26.5,23.0,30.37,NNE,21,2.0,4.0,88,0.00,,,0.00,weatherlink.com 1.10,2013-02-09 10:16:00,
2013-02-09 05:31:00,26.4,24.0,30.37,NNE,15,3.0,6.0,89,0.00,,,0.00,weatherlink.com 1.10,2013-02-09 10:31:00,
2013-02-09 05:46:00,27.1,24.0,30.38,NNE,23,0.0,3.0,89,0.00,,,0.00,weatherlink.com 1.10,2013-02-09 10:46:00,
2013-02-09 06:01:00,27.6,25.0,30.39,NNE,23,0.0,0.0,88,0.00,,,0.00,weatherlink.com 1.10,2013-02-09 11:01:00,
2013-02-09 06:16:00,27.6,25.0,30.39,NNE,22,0.0,0.0,88,0.00,,,0.00,weatherlink.com 1.10,2013-02-09 11:16:00,
2013-02-09 06:31:00,27.1,24.0,30.40,NNE,23,0.0,0.0,88,0.00,,,0.00,weatherlink.com 1.10,2013-02-09 11:31:00,
2013-02-09 06:46:00,26.4,24.0,30.40,NNE,23,0.0,0.0,89,0.00,,,0.00,weatherlink.com 1.10,2013-02-09 11:46:00,
2013-02-09 07:01:00,25.6,23.0,30.40,NNE,22,0.0,0.0,90,0.00,,,0.00,weatherlink.com 1.10,2013-02-09 12:01:00,
2013-02-09 07:16:00,24.9,23.0,30.41,NNE,22,0.0,0.0,91,0.00,,,0.00,weatherlink.com 1.10,2013-02-09 12:16:00,
2013-02-09 07:31:00,24.4,22.0,30.41,NNE,23,0.0,0.0,91,0.00,,,0.00,weatherlink.com 1.10,2013-02-09 12:31:00,
2013-02-09 07:46:00,24.0,22.0,30.41,NNE,23,0.0,0.0,91,0.00,,,0.00,weatherlink.com 1.10,2013-02-09 12:46:00,
2013-02-09 08:02:00,23.7,22.0,30.41,ENE,69,0.0,0.0,92,0.00,,,0.00,weatherlink.com 1.10,2013-02-09 13:02:00,
2013-02-09 08:17:00,23.6,22.0,30.41,ENE,69,0.0,0.0,92,0.00,,,0.00,weatherlink.com 1.10,2013-02-09 13:17:00,
2013-02-09 08:32:00,23.9,22.0,30.41,ENE,69,0.0,0.0,93,0.00,,,0.00,weatherlink.com 1.10,2013-02-09 13:32:00,
2013-02-09 08:47:00,24.9,24.0,30.41,ENE,65,0.0,3.0,94,0.00,,,0.00,weatherlink.com 1.10,2013-02-09 13:47:00,
2013-02-09 09:02:00,26.5,25.0,30.41,NNE,19,1.0,5.0,92,0.00,,,0.00,weatherlink.com 1.10,2013-02-09 14:02:00,
2013-02-09 09:17:00,28.6,25.0,30.41,NNE,26,0.0,4.0,87,0.00,,,0.00,weatherlink.com 1.10,2013-02-09 14:17:00,
2013-02-09 09:32:00,31.4,27.0,30.40,East,96,3.0,7.0,82,0.00,,,0.00,weatherlink.com 1.10,2013-02-09 14:32:00,
2013-02-09 09:47:00,32.9,27.0,30.41,East,81,0.0,7.0,79,0.00,,,0.00,weatherlink.com 1.10,2013-02-09 14:47:00,
2013-02-09 10:02:00,33.5,26.0,30.41,ENE,69,2.0,9.0,75,0.00,,,0.00,weatherlink.com 1.10,2013-02-09 15:02:00,
2013-02-09 10:17:00,34.8,27.0,30.40,East,85,1.0,8.0,74,0.00,,,0.00,weatherlink.com 1.10,2013-02-09 15:17:00,
2013-02-09 10:32:00,35.9,27.0,30.41,East,99,3.0,6.0,71,0.00,,,0.00,weatherlink.com 1.10,2013-02-09 15:32:00,
2013-02-09 10:47:00,36.6,28.0,30.40,ESE,120,2.0,5.0,72,0.00,,,0.00,weatherlink.com 1.10,2013-02-09 15:47:00,
2013-02-09 11:02:00,36.6,27.0,30.40,ESE,120,2.0,7.0,69,0.00,,,0.00,weatherlink.com 1.10,2013-02-09 16:02:00,
2013-02-09 11:17:00,36.9,28.0,30.40,ESE,123,4.0,9.0,69,0.00,,,0.00,weatherlink.com 1.10,2013-02-09 16:17:00,
2013-02-09 11:32:00,38.2,29.0,30.40,East,93,2.0,7.0,70,0.00,,,0.00,weatherlink.com 1.10,2013-02-09 16:32:00,
2013-02-09 11:47:00,39.2,29.0,30.40,ESE,113,3.0,9.0,66,0.00,,,0.00,weatherlink.com 1.10,2013-02-09 16:47:00,
2013-02-09 12:02:00,39.5,29.0,30.39,East,91,1.0,6.0,67,0.00,,,0.00,weatherlink.com 1.10,2013-02-09 17:02:00,
2013-02-09 12:17:00,40.7,29.0,30.38,East,84,3.0,8.0,64,0.00,,,0.00,weatherlink.com 1.10,2013-02-09 17:17:00,
2013-02-09 12:32:00,41.1,30.0,30.38,SE,130,3.0,7.0,64,0.00,,,0.00,weatherlink.com 1.10,2013-02-09 17:32:00,
2013-02-09 12:47:00,42.9,30.0,30.36,NE,49,5.0,8.0,60,0.00,,,0.00,weatherlink.com 1.10,2013-02-09 17:47:00,
2013-02-09 13:03:00,43.4,29.0,30.35,East,81,1.0,5.0,58,0.00,,,0.00,weatherlink.com 1.10,2013-02-09 18:03:00,
2013-02-09 13:17:00,44.3,30.0,30.35,SE,138,4.0,8.0,57,0.00,,,0.00,weatherlink.com 1.10,2013-02-09 18:17:00,
2013-02-09 13:32:00,45.2,31.0,30.33,East,80,5.0,8.0,58,0.00,,,0.00,weatherlink.com 1.10,2013-02-09 18:32:00,
2013-02-09 13:47:00,46.3,31.0,30.32,ENE,57,7.0,7.0,55,0.00,,,0.00,weatherlink.com 1.10,2013-02-09 18:47:00,
2013-02-09 14:02:00,46.8,30.0,30.32,NE,45,5.0,9.0,53,0.00,,,0.00,weatherlink.com 1.10,2013-02-09 19:02:00,
2013-02-09 14:18:00,48.2,31.0,30.31,ESE,118,4.0,7.0,52,0.00,,,0.00,weatherlink.com 1.10,2013-02-09 19:18:00,
2013-02-09 14:33:00,48.5,29.0,30.30,East,80,1.0,6.0,48,0.00,,,0.00,weatherlink.com 1.10,2013-02-09 19:33:00,
2013-02-09 14:48:00,47.2,28.0,30.30,SSE,149,6.0,8.0,48,0.00,,,0.00,weatherlink.com 1.10,2013-02-09 19:48:00,
2013-02-09 15:03:00,47.7,29.0,30.29,South,172,3.0,8.0,49,0.00,,,0.00,weatherlink.com 1.10,2013-02-09 20:03:00,
2013-02-09 15:18:00,47.8,31.0,30.29,SE,134,5.0,7.0,52,0.00,,,0.00,weatherlink.com 1.10,2013-02-09 20:18:00,
2013-02-09 15:33:00,48.0,30.0,30.27,SE,133,3.0,7.0,50,0.00,,,0.00,weatherlink.com 1.10,2013-02-09 20:33:00,
2013-02-09 15:48:00,49.1,30.0,30.27,ENE,61,2.0,6.0,48,0.00,,,0.00,weatherlink.com 1.10,2013-02-09 20:48:00,
2013-02-09 16:03:00,48.2,30.0,30.27,SE,127,3.0,8.0,49,0.00,,,0.00,weatherlink.com 1.10,2013-02-09 21:03:00,
2013-02-09 16:18:00,48.6,30.0,30.27,East,85,2.0,8.0,48,0.00,,,0.00,weatherlink.com 1.10,2013-02-09 21:18:00,
2013-02-09 16:33:00,48.8,29.0,30.26,ENE,78,5.0,7.0,46,0.00,,,0.00,weatherlink.com 1.10,2013-02-09 21:33:00,
2013-02-09 16:48:00,49.8,29.0,30.26,NE,40,3.0,6.0,45,0.00,,,0.00,weatherlink.com 1.10,2013-02-09 21:48:00,
2013-02-09 17:03:00,48.8,29.0,30.26,East,80,2.0,7.0,46,0.00,,,0.00,weatherlink.com 1.10,2013-02-09 22:03:00,
2013-02-09 17:18:00,48.6,28.0,30.25,East,91,5.0,6.0,45,0.00,,,0.00,weatherlink.com 1.10,2013-02-09 22:18:00,
2013-02-09 17:33:00,47.8,28.0,30.25,East,81,3.0,4.0,46,0.00,,,0.00,weatherlink.com 1.10,2013-02-09 22:33:00,
2013-02-09 17:48:00,45.3,27.0,30.24,ESE,119,1.0,5.0,50,0.00,,,0.00,weatherlink.com 1.10,2013-02-09 22:48:00,
2013-02-09 18:03:00,44.0,27.0,30.24,East,84,0.0,5.0,52,0.00,,,0.00,weatherlink.com 1.10,2013-02-09 23:03:00,
2013-02-09 18:18:00,42.7,26.0,30.24,NE,56,0.0,5.0,53,0.00,,,0.00,weatherlink.com 1.10,2013-02-09 23:18:00,
2013-02-09 18:33:00,41.5,27.0,30.24,ENE,63,1.0,2.0,56,0.00,,,0.00,weatherlink.com 1.10,2013-02-09 23:33:00,
2013-02-09 18:48:00,40.0,26.0,30.25,ENE,63,0.0,2.0,58,0.00,,,0.00,weatherlink.com 1.10,2013-02-09 23:48:00,
2013-02-09 19:03:00,38.0,27.0,30.24,ENE,62,0.0,2.0,65,0.00,,,0.00,weatherlink.com 1.10,2013-02-10 00:03:00,
2013-02-09 19:18:00,36.0,27.0,30.23,NNE,28,2.0,3.0,69,0.00,,,0.00,weatherlink.com 1.10,2013-02-10 00:18:00,
2013-02-09 19:33:00,34.4,27.0,30.23,NNE,28,0.0,1.0,73,0.00,,,0.00,weatherlink.com 1.10,2013-02-10 00:33:00,
2013-02-09 19:48:00,33.5,26.0,30.23,NNE,29,2.0,3.0,74,0.00,,,0.00,weatherlink.com 1.10,2013-02-10 00:48:00,
2013-02-09 20:03:00,33.1,26.0,30.23,NNE,28,0.0,1.0,75,0.00,,,0.00,weatherlink.com 1.10,2013-02-10 01:03:00,
2013-02-09 20:18:00,32.8,26.0,30.23,NNE,29,0.0,1.0,76,0.00,,,0.00,weatherlink.com 1.10,2013-02-10 01:18:00,
2013-02-09 20:33:00,32.4,26.0,30.23,NNE,29,0.0,0.0,77,0.00,,,0.00,weatherlink.com 1.10,2013-02-10 01:33:00,
2013-02-09 20:48:00,31.9,26.0,30.23,NNE,32,0.0,3.0,78,0.00,,,0.00,weatherlink.com 1.10,2013-02-10 01:48:00,
2013-02-09 21:03:00,31.6,25.0,30.23,NNE,32,1.0,3.0,78,0.00,,,0.00,weatherlink.com 1.10,2013-02-10 02:03:00,
2013-02-09 21:18:00,32.3,26.0,30.23,NNE,32,0.0,1.0,77,0.00,,,0.00,weatherlink.com 1.10,2013-02-10 02:18:00,
2013-02-09 21:33:00,32.5,26.0,30.22,NNE,31,0.0,3.0,77,0.00,,,0.00,weatherlink.com 1.10,2013-02-10 02:33:00,
2013-02-09 21:48:00,33.7,26.0,30.22,ENE,69,2.0,5.0,73,0.00,,,0.00,weatherlink.com 1.10,2013-02-10 02:48:00,
2013-02-09 22:04:00,35.2,26.0,30.21,ENE,70,2.0,5.0,69,0.00,,,0.00,weatherlink.com 1.10,2013-02-10 03:04:00,
2013-02-09 22:18:00,35.9,26.0,30.21,NE,51,2.0,5.0,67,0.00,,,0.00,weatherlink.com 1.10,2013-02-10 03:18:00,
2013-02-09 22:33:00,36.4,26.0,30.20,ENE,60,0.0,4.0,66,0.00,,,0.00,weatherlink.com 1.10,2013-02-10 03:33:00,
2013-02-09 22:48:00,36.7,25.0,30.19,East,86,0.0,5.0,64,0.00,,,0.00,weatherlink.com 1.10,2013-02-10 03:48:00,
2013-02-09 23:03:00,37.1,25.0,30.18,NE,55,3.0,7.0,63,0.00,,,0.00,weatherlink.com 1.10,2013-02-10 04:03:00,
2013-02-09 23:18:00,37.2,25.0,30.17,East,87,0.0,4.0,62,0.00,,,0.00,weatherlink.com 1.10,2013-02-10 04:18:00,
2013-02-09 23:33:00,37.3,25.0,30.17,ENE,64,0.0,5.0,62,0.00,,,0.00,weatherlink.com 1.10,2013-02-10 04:33:00,
2013-02-09 23:48:00,37.4,25.0,30.16,East,81,1.0,7.0,61,0.00,,,0.00,weatherlink.com 1.10,2013-02-10 04:48:00,